KRMG/RMG METAR and TAF weather

Enter ICAO airport designator
Station Type Date Time Source
KRMG METAR 2020/07/11 22:53 UTC NOAA

KRMG 112253Z AUTO 32008KT 10SM CLR 33/16 A2990 RMK AO2 SLP115 T03280161


Station Type Date Time Source
KRMG Decoded METAR 2020/07/11 22:53 UTC NOAA

ROME R. B. RUSSELL AIRPORT, GA, United States (KRMG) 34-21N 085-10W 193M
Jul 11, 2020 - 06:53 PM EDT / 2020.07.11 2253 UTC
Wind: from the NW (320 degrees) at 9 MPH (8 KT):0
Visibility: 10 mile(s):0
Sky conditions: clear
Temperature: 91.0 F (32.8 C)
Dew Point: 61.0 F (16.1 C)
Relative Humidity: 36%
Pressure (altimeter): 29.9 in. Hg (1012 hPa)
ob: KRMG 112253Z AUTO 32008KT 10SM CLR 33/16 A2990 RMK AO2 SLP115 T03280161
cycle: 23

Station Type Date Time Source
KRMG TAF UTC NOAA

Error!

Example: see airport list